Time;durP1;ratioP1;P1;durP2;ratioP2;P2;SDS_P1;SDS_P2;PMS_P1;PMS_P2;Temp;Humidity;BMP_temperature;BMP_pressure;BME280_temperature;BME280_humidity;BME280_pressure;Samples;Min_cycle;Max_cycle;Signal;HPM_P1;HPM_P2
2023/06/08 00:00:09;;;;;;;9.60;8.77;;;17.10;99.90;;;;;;5066165;28;20185;-73
2023/06/08 00:02:36;;;;;;;10.85;9.90;;;17.10;99.90;;;;;;5065495;28;20181;-74
2023/06/08 00:05:02;;;;;;;9.77;8.77;;;17.00;99.90;;;;;;5065979;28;20181;-72
2023/06/08 00:07:34;;;;;;;9.30;8.40;;;17.00;99.90;;;;;;5065463;28;20232;-74
2023/06/08 00:10:00;;;;;;;9.00;8.18;;;17.00;99.90;;;;;;5065516;28;20221;-73
2023/06/08 00:12:25;;;;;;;9.57;8.75;;;16.90;99.90;;;;;;5064977;28;20669;-73
2023/06/08 00:14:51;;;;;;;11.55;10.55;;;16.70;99.90;;;;;;5065711;28;20251;-74
2023/06/08 00:17:17;;;;;;;10.27;9.27;;;16.70;99.90;;;;;;5065411;28;20197;-74
2023/06/08 00:19:42;;;;;;;10.52;9.60;;;17.20;1.00;;;;;;5065435;28;20192;-74
2023/06/08 00:22:12;;;;;;;10.75;9.65;;;16.90;99.90;;;;;;5064589;28;20226;-72
2023/06/08 00:24:38;;;;;;;9.65;8.80;;;16.80;99.90;;;;;;5065438;28;20645;-74
2023/06/08 00:27:05;;;;;;;8.50;7.75;;;16.90;99.90;;;;;;5065318;28;20209;-73
2023/06/08 00:29:32;;;;;;;9.75;8.80;;;16.90;99.90;;;;;;5065181;28;20193;-74
2023/06/08 00:31:57;;;;;;;10.95;10.05;;;16.80;99.90;;;;;;5064913;28;20261;-75
2023/06/08 00:34:24;;;;;;;11.52;10.00;;;16.70;99.90;;;;;;5065652;28;20273;-74
2023/06/08 00:36:50;;;;;;;12.18;11.18;;;16.70;1.00;;;;;;5064715;28;20177;-74
2023/06/08 00:39:16;;;;;;;12.68;11.52;;;16.60;1.00;;;;;;5065170;28;20553;-74
2023/06/08 00:41:42;;;;;;;10.93;9.93;;;16.30;1.00;;;;;;5064798;28;20236;-75
2023/06/08 00:44:09;;;;;;;10.90;9.95;;;16.30;1.00;;;;;;5064650;28;20174;-73
2023/06/08 00:46:36;;;;;;;10.48;9.57;;;16.30;1.00;;;;;;5063244;28;20197;-74
2023/06/08 00:49:02;;;;;;;11.63;10.23;;;16.30;99.90;;;;;;5064715;28;20495;-73
2023/06/08 00:51:39;;;;;;;10.32;9.43;;;16.30;1.00;;;;;;5065056;28;20215;-75
2023/06/08 00:54:05;;;;;;;9.00;8.30;;;16.40;1.00;;;;;;5064570;28;20671;-74
2023/06/08 00:56:35;;;;;;;11.18;10.20;;;16.40;1.00;;;;;;5062972;28;20221;-73
2023/06/08 00:59:02;;;;;;;10.82;9.82;;;16.40;1.00;;;;;;5064082;28;20225;-74
2023/06/08 01:01:31;;;;;;;12.50;11.40;;;16.90;1.00;;;;;;5064796;28;20228;-75
2023/06/08 01:04:05;;;;;;;13.73;12.38;;;16.30;1.00;;;;;;5064387;28;20535;-74
2023/06/08 01:06:35;;;;;;;12.52;11.38;;;16.30;1.00;;;;;;5064462;28;20659;-73
2023/06/08 01:09:19;;;;;;;12.75;11.55;;;16.30;49.40;;;;;;5064575;28;20217;-73
2023/06/08 01:11:56;;;;;;;12.20;11.00;;;16.20;1.00;;;;;;5063709;28;20177;-74
2023/06/08 01:14:41;;;;;;;11.93;10.73;;;16.20;1.00;;;;;;5063776;28;20175;-73
2023/06/08 01:17:09;;;;;;;11.23;10.23;;;16.30;1.00;;;;;;5063859;28;20686;-75
2023/06/08 01:20:09;;;;;;;10.98;9.98;;;16.90;1.00;;;;;;5064739;28;20209;-73
2023/06/08 01:22:46;;;;;;;10.50;9.50;;;16.30;1.00;;;;;;5063970;28;20209;-74
2023/06/08 01:25:14;;;;;;;11.23;10.18;;;16.40;99.90;;;;;;5064648;28;20188;-74
2023/06/08 01:27:40;;;;;;;10.55;9.65;;;17.20;99.90;;;;;;5064208;28;20205;-73
2023/06/08 01:30:06;;;;;;;12.13;10.88;;;16.30;99.90;;;;;;5064503;28;20199;-73
2023/06/08 01:32:32;;;;;;;10.93;9.93;;;16.40;99.90;;;;;;5063954;28;20178;-76
2023/06/08 01:34:58;;;;;;;11.23;10.25;;;16.30;99.90;;;;;;5064408;28;20254;-74
2023/06/08 01:37:29;;;;;;;10.55;9.65;;;16.40;99.90;;;;;;5064643;28;20747;-76
2023/06/08 01:40:09;;;;;;;10.77;9.77;;;16.40;99.90;;;;;;5064464;28;20613;-73
2023/06/08 01:42:35;;;;;;;12.02;10.18;;;16.40;99.90;;;;;;5063018;28;20188;-74
2023/06/08 01:45:16;;;;;;;11.15;10.15;;;16.40;99.90;;;;;;5064145;28;20185;-74
2023/06/08 01:47:48;;;;;;;10.02;9.02;;;16.50;99.90;;;;;;5064042;28;20208;-75
2023/06/08 01:50:17;;;;;;;10.27;9.38;;;17.00;99.90;;;;;;5064191;28;20266;-74
2023/06/08 01:52:43;;;;;;;9.80;8.90;;;16.50;99.90;;;;;;5063861;28;20210;-72
2023/06/08 01:55:19;;;;;;;10.15;9.15;;;16.60;99.90;;;;;;5064395;28;20548;-73
2023/06/08 01:57:47;;;;;;;9.48;8.77;;;16.50;99.90;;;;;;5037271;22;20727;-88
2023/06/08 02:00:16;;;;;;;10.38;9.38;;;18.30;99.90;;;;;;5008673;28;20176;-88
2023/06/08 02:02:42;;;;;;;9.60;8.68;;;16.50;99.90;;;;;;5006244;28;20190;-88
2023/06/08 02:05:11;;;;;;;9.80;8.95;;;16.80;99.90;;;;;;5003275;28;20210;-88
2023/06/08 02:07:41;;;;;;;9.93;8.93;;;18.10;99.90;;;;;;5002643;28;20184;-89
2023/06/08 02:10:09;;;;;;;9.73;8.70;;;18.90;99.90;;;;;;4999456;28;20724;-89
2023/06/08 02:12:35;;;;;;;10.13;9.07;;;16.60;99.90;;;;;;4996230;28;20184;-88
2023/06/08 02:15:01;;;;;;;9.50;8.57;;;18.30;99.90;;;;;;4999589;28;20520;-88
2023/06/08 02:17:33;;;;;;;9.70;8.82;;;18.80;99.90;;;;;;4996786;28;20234;-90
2023/06/08 02:20:00;;;;;;;10.10;9.27;;;16.70;99.90;;;;;;4995537;28;20188;-89
2023/06/08 02:22:27;;;;;;;9.25;8.43;;;17.30;99.90;;;;;;5008132;28;20646;-89
2023/06/08 02:24:52;;;;;;;9.40;8.60;;;17.30;99.90;;;;;;4999632;28;20183;-88
2023/06/08 02:27:18;;;;;;;9.65;8.20;;;17.80;99.90;;;;;;4999507;28;20816;-88
2023/06/08 02:29:44;;;;;;;9.23;8.38;;;16.60;99.90;;;;;;5002881;28;20621;-88
2023/06/08 02:32:09;;;;;;;9.15;8.35;;;18.30;99.90;;;;;;5004922;28;20196;-89
2023/06/08 02:34:37;;;;;;;10.90;8.95;;;18.30;99.90;;;;;;5010799;28;20176;-89
2023/06/08 02:37:03;;;;;;;9.90;8.90;;;18.00;99.90;;;;;;4999945;28;20183;-90
2023/06/08 02:39:29;;;;;;;9.25;8.38;;;16.60;99.90;;;;;;4991689;28;20180;-88
2023/06/08 02:41:54;;;;;;;9.93;8.75;;;18.10;99.90;;;;;;4997138;28;20214;-88
2023/06/08 02:44:20;;;;;;;9.52;8.63;;;18.60;99.90;;;;;;5011294;28;20184;-88
2023/06/08 02:46:47;;;;;;;9.15;8.23;;;18.30;99.90;;;;;;5006609;28;20179;-88
2023/06/08 02:49:12;;;;;;;8.60;7.70;;;18.80;99.90;;;;;;5001081;28;20181;-88
2023/06/08 02:51:38;;;;;;;9.55;8.55;;;16.50;99.90;;;;;;5009282;28;20200;-88
2023/06/08 02:54:04;;;;;;;9.13;8.23;;;18.80;99.90;;;;;;4996581;28;20180;-88
2023/06/08 02:56:29;;;;;;;9.40;8.35;;;16.50;99.90;;;;;;5004505;28;20211;-88
2023/06/08 02:58:56;;;;;;;9.15;8.00;;;19.10;99.90;;;;;;5013417;28;20179;-89
2023/06/08 03:01:23;;;;;;;8.80;7.93;;;16.80;99.90;;;;;;5009174;28;20713;-89
2023/06/08 03:03:51;;;;;;;9.15;8.25;;;18.30;99.90;;;;;;4995350;28;20188;-89
2023/06/08 03:06:17;;;;;;;8.55;7.85;;;17.70;99.90;;;;;;4995204;28;20181;-89
2023/06/08 03:08:53;;;;;;;10.38;7.97;;;17.30;99.90;;;;;;5011474;28;20212;-89
2023/06/08 03:11:20;;;;;;;8.98;8.15;;;16.50;99.90;;;;;;5014641;28;20210;-89
2023/06/08 03:13:46;;;;;;;10.40;7.97;;;18.70;99.90;;;;;;5000872;28;20204;-89
2023/06/08 03:16:12;;;;;;;9.30;8.00;;;18.20;99.90;;;;;;5006085;28;20182;-88
2023/06/08 03:18:39;;;;;;;8.65;7.80;;;16.40;99.90;;;;;;5008812;28;20179;-88
2023/06/08 03:21:07;;;;;;;9.02;8.13;;;18.00;99.90;;;;;;5014558;28;20250;-88
2023/06/08 03:23:35;;;;;;;7.95;7.15;;;18.60;99.90;;;;;;5003307;28;20645;-88
2023/06/08 03:26:01;;;;;;;8.18;7.40;;;17.50;99.90;;;;;;5007208;28;20176;-88
2023/06/08 03:28:27;;;;;;;9.27;7.72;;;16.20;99.90;;;;;;5014392;28;20543;-88
2023/06/08 03:30:52;;;;;;;8.55;7.75;;;16.90;99.90;;;;;;5000773;28;20212;-89
2023/06/08 03:33:19;;;;;;;7.85;7.15;;;15.90;99.90;;;;;;5002334;28;20274;-89
2023/06/08 03:35:45;;;;;;;8.68;7.88;;;16.20;99.90;;;;;;5001241;28;20775;-88
2023/06/08 03:38:10;;;;;;;8.02;7.25;;;16.20;99.90;;;;;;4997115;28;20222;-88
2023/06/08 03:40:36;;;;;;;8.38;7.65;;;17.10;99.90;;;;;;4998858;28;20224;-87
2023/06/08 03:43:02;;;;;;;8.18;7.25;;;18.50;99.90;;;;;;5001407;28;20188;-88
2023/06/08 03:45:28;;;;;;;9.07;7.47;;;16.40;99.90;;;;;;5000182;28;20184;-90
2023/06/08 03:47:55;;;;;;;8.65;7.75;;;18.50;99.90;;;;;;5002395;28;20184;-89
2023/06/08 03:50:21;;;;;;;8.75;7.85;;;18.20;99.90;;;;;;5006471;28;20226;-90
2023/06/08 03:52:46;;;;;;;10.38;7.60;;;18.60;99.90;;;;;;4998520;28;20195;-90
2023/06/08 03:55:12;;;;;;;7.97;7.05;;;17.80;99.90;;;;;;5004752;28;20179;-88
2023/06/08 03:57:39;;;;;;;8.30;7.45;;;17.50;99.90;;;;;;5004607;28;20231;-89
2023/06/08 04:00:08;;;;;;;7.43;6.72;;;16.40;99.90;;;;;;5001427;28;20242;-89
2023/06/08 04:02:35;;;;;;;8.30;7.53;;;16.40;99.90;;;;;;5003465;28;20195;-89
2023/06/08 04:05:01;;;;;;;7.82;7.03;;;18.60;99.90;;;;;;5005737;28;20187;-89
2023/06/08 04:07:27;;;;;;;9.90;7.50;;;18.40;99.90;;;;;;4997223;28;20207;-89
2023/06/08 04:09:53;;;;;;;7.75;6.95;;;19.00;99.90;;;;;;4999382;28;20261;-89
2023/06/08 04:12:19;;;;;;;8.20;7.40;;;16.50;99.90;;;;;;5002445;28;20208;-89
2023/06/08 04:14:45;;;;;;;8.52;6.82;;;18.50;99.90;;;;;;5010147;28;20210;-89
2023/06/08 04:17:12;;;;;;;10.45;7.30;;;19.40;92.70;;;;;;5003055;28;20195;-89
2023/06/08 04:19:38;;;;;;;7.93;7.03;;;18.60;92.10;;;;;;5009454;28;20192;-89
2023/06/08 04:22:04;;;;;;;8.02;7.10;;;16.40;80.60;;;;;;5000989;28;20265;-87
2023/06/08 04:24:30;;;;;;;7.53;6.40;;;16.70;86.40;;;;;;5001887;28;20385;-88
2023/06/08 04:26:56;;;;;;;7.68;6.88;;;18.50;69.00;;;;;;5016133;28;20285;-88
2023/06/08 04:29:22;;;;;;;8.63;6.57;;;17.80;66.50;;;;;;4992250;28;20198;-88
2023/06/08 04:31:48;;;;;;;7.88;7.00;;;17.50;68.00;;;;;;4999890;28;20203;-89
2023/06/08 04:34:14;;;;;;;8.48;6.50;;;18.30;55.10;;;;;;5000740;28;20192;-89
2023/06/08 04:36:43;;;;;;;7.93;6.63;;;18.30;50.70;;;;;;5000916;28;20486;-89
2023/06/08 04:39:09;;;;;;;8.65;7.07;;;17.00;49.70;;;;;;5000867;28;20191;-89
2023/06/08 04:41:35;;;;;;;7.65;6.55;;;17.00;41.00;;;;;;4999970;28;20203;-87
2023/06/08 04:44:02;;;;;;;7.57;6.40;;;18.60;29.00;;;;;;5002062;28;20717;-88
2023/06/08 04:46:30;;;;;;;6.70;6.07;;;18.30;20.30;;;;;;5000475;28;20314;-88
2023/06/08 04:48:56;;;;;;;6.47;5.88;;;17.80;9.60;;;;;;4998793;28;20565;-88
2023/06/08 04:51:23;;;;;;;7.00;6.32;;;17.10;1.00;;;;;;5000131;28;20208;-88
2023/06/08 04:53:51;;;;;;;7.65;6.47;;;18.70;1.00;;;;;;5000510;28;20183;-88
2023/06/08 04:56:18;;;;;;;8.82;6.75;;;19.20;1.00;;;;;;4999664;28;20180;-88
2023/06/08 04:58:45;;;;;;;8.93;6.68;;;18.00;1.00;;;;;;4998603;28;20195;-88
2023/06/08 05:01:11;;;;;;;10.00;6.90;;;19.30;1.00;;;;;;4999186;28;20212;-88
2023/06/08 05:03:37;;;;;;;6.70;5.85;;;19.20;1.00;;;;;;5000402;28;20206;-88
2023/06/08 05:06:02;;;;;;;9.38;6.40;;;18.20;1.00;;;;;;5000864;28;20186;-88
2023/06/08 05:08:28;;;;;;;6.97;6.00;;;17.70;1.00;;;;;;4999420;28;20275;-88
2023/06/08 05:10:55;;;;;;;7.22;6.28;;;19.00;1.00;;;;;;4998320;28;20224;-87
2023/06/08 05:13:21;;;;;;;7.68;6.15;;;19.80;1.00;;;;;;5016972;28;20193;-89
2023/06/08 05:15:47;;;;;;;8.38;6.80;;;17.90;1.00;;;;;;4999475;28;20176;-88
2023/06/08 05:18:12;;;;;;;7.85;6.38;;;17.90;1.00;;;;;;4997988;28;20180;-87
2023/06/08 05:20:38;;;;;;;10.68;6.90;;;19.60;1.00;;;;;;4998533;28;20586;-88
2023/06/08 05:23:03;;;;;;;8.80;5.93;;;19.90;1.00;;;;;;5000210;28;20208;-88
2023/06/08 05:25:36;;;;;;;7.72;7.03;;;19.40;1.00;;;;;;5000460;28;20184;-87
2023/06/08 05:28:02;;;;;;;9.63;6.75;;;18.30;1.00;;;;;;5000999;28;20191;-88
2023/06/08 05:30:28;;;;;;;8.45;7.15;;;17.90;1.00;;;;;;4999546;28;20211;-88
2023/06/08 05:32:53;;;;;;;8.52;6.95;;;19.00;1.00;;;;;;4999339;28;20253;-88
2023/06/08 05:35:19;;;;;;;10.20;7.15;;;18.80;1.00;;;;;;5000469;28;20259;-88
2023/06/08 05:37:45;;;;;;;8.20;6.78;;;18.00;1.00;;;;;;4997713;28;20670;-87
2023/06/08 05:40:11;;;;;;;8.05;6.88;;;19.80;1.00;;;;;;5001301;28;20259;-88
2023/06/08 05:42:36;;;;;;;9.23;7.10;;;18.30;1.00;;;;;;4998199;28;20666;-88
2023/06/08 05:45:02;;;;;;;8.65;6.72;;;20.10;1.00;;;;;;4999936;28;20191;-87
2023/06/08 05:47:29;;;;;;;9.40;6.72;;;18.80;1.00;;;;;;4999410;28;20275;-87
2023/06/08 05:49:54;;;;;;;7.88;6.78;;;18.90;1.00;;;;;;4997114;28;20279;-87
2023/06/08 05:52:34;;;;;;;10.40;6.43;;;19.20;1.00;;;;;;4998582;28;20292;-87
2023/06/08 05:55:00;;;;;;;7.88;6.40;;;20.20;1.00;;;;;;5004829;28;20182;-88
2023/06/08 05:57:26;;;;;;;7.68;6.93;;;20.10;1.00;;;;;;4999848;28;20670;-87
2023/06/08 05:59:51;;;;;;;8.55;6.85;;;20.10;1.00;;;;;;5003665;28;20192;-87
2023/06/08 06:02:19;;;;;;;8.20;6.75;;;21.40;1.00;;;;;;5005205;28;20204;-87
2023/06/08 06:04:45;;;;;;;9.93;6.63;;;19.40;1.00;;;;;;5002794;28;20191;-88
2023/06/08 06:07:10;;;;;;;8.65;6.70;;;20.40;1.00;;;;;;5001842;28;20283;-88
2023/06/08 06:09:36;;;;;;;9.20;7.05;;;19.60;1.00;;;;;;5004216;28;20215;-87
2023/06/08 06:12:02;;;;;;;7.78;6.50;;;20.10;1.00;;;;;;5020158;28;20227;-88
2023/06/08 06:14:35;;;;;;;8.82;6.75;;;19.50;1.00;;;;;;5002931;28;20182;-87
2023/06/08 06:17:01;;;;;;;7.82;6.65;;;20.90;1.00;;;;;;5002170;28;20188;-88
2023/06/08 06:19:26;;;;;;;11.18;7.00;;;20.60;1.00;;;;;;5003251;28;20171;-88
2023/06/08 06:21:52;;;;;;;9.82;6.70;;;19.50;1.00;;;;;;4999289;28;20290;-87
2023/06/08 06:24:18;;;;;;;7.90;6.75;;;20.40;1.00;;;;;;4998397;28;20188;-88
2023/06/08 06:26:44;;;;;;;9.13;6.90;;;20.70;1.00;;;;;;5008937;28;20226;-87
2023/06/08 06:29:10;;;;;;;8.27;6.72;;;20.50;1.00;;;;;;5008262;28;20187;-88
2023/06/08 06:31:35;;;;;;;8.25;6.53;;;20.70;1.00;;;;;;5008348;28;20204;-87
2023/06/08 06:34:01;;;;;;;7.78;6.07;;;22.40;1.00;;;;;;5004889;28;20188;-87
2023/06/08 06:36:27;;;;;;;8.88;6.35;;;22.40;1.00;;;;;;5002976;28;20184;-88
2023/06/08 06:38:52;;;;;;;6.93;6.22;;;22.90;1.00;;;;;;5010907;28;20646;-88
2023/06/08 06:41:18;;;;;;;8.10;6.53;;;23.60;1.00;;;;;;5002875;28;20582;-87
2023/06/08 06:43:43;;;;;;;7.63;6.68;;;24.20;1.00;;;;;;5008104;28;20267;-87
2023/06/08 06:46:09;;;;;;;7.78;6.68;;;24.30;1.00;;;;;;5006261;28;20177;-87
2023/06/08 06:48:35;;;;;;;7.13;5.72;;;25.50;1.00;;;;;;5004387;28;20184;-87
2023/06/08 06:51:00;;;;;;;9.65;6.47;;;26.00;1.00;;;;;;5003838;28;20841;-88
2023/06/08 06:53:26;;;;;;;7.97;6.45;;;26.30;1.00;;;;;;5003749;28;20186;-87
2023/06/08 06:55:51;;;;;;;7.50;6.80;;;26.30;1.00;;;;;;5002988;28;20195;-88
2023/06/08 06:58:18;;;;;;;8.13;6.75;;;25.70;1.00;;;;;;5007286;28;20211;-88
2023/06/08 07:00:44;;;;;;;6.60;5.72;;;24.20;1.00;;;;;;5002051;28;20212;-87
2023/06/08 07:03:11;;;;;;;7.43;6.43;;;24.80;1.00;;;;;;5006944;28;20176;-88
2023/06/08 07:05:37;;;;;;;8.40;6.72;;;23.70;1.00;;;;;;5003877;28;20202;-87
2023/06/08 07:08:03;;;;;;;8.48;6.63;;;23.60;1.00;;;;;;5005269;28;20709;-88
2023/06/08 07:10:29;;;;;;;7.90;6.95;;;22.60;1.00;;;;;;5004791;28;20725;-87
2023/06/08 07:12:56;;;;;;;9.38;7.05;;;22.90;1.00;;;;;;5005613;28;20191;-87
2023/06/08 07:15:22;;;;;;;8.13;7.32;;;23.70;1.00;;;;;;5005765;28;20191;-87
2023/06/08 07:17:48;;;;;;;8.82;7.43;;;22.80;1.00;;;;;;5006271;28;20180;-87
2023/06/08 07:20:13;;;;;;;9.45;7.93;;;22.30;1.00;;;;;;5004982;28;20195;-87
2023/06/08 07:22:40;;;;;;;8.15;7.00;;;21.70;1.00;;;;;;5007235;28;20185;-89
2023/06/08 07:25:06;;;;;;;9.65;8.43;;;22.20;1.00;;;;;;5004459;28;20188;-88
2023/06/08 07:27:32;;;;;;;9.80;7.90;;;22.10;1.00;;;;;;5006533;28;20195;-87
2023/06/08 07:29:57;;;;;;;9.75;8.40;;;23.90;1.00;;;;;;5007735;28;20215;-88
2023/06/08 07:32:24;;;;;;;9.05;8.15;;;22.50;1.00;;;;;;5001850;28;20251;-88
2023/06/08 07:34:51;;;;;;;8.82;7.57;;;22.80;1.00;;;;;;5005189;28;20269;-88
2023/06/08 07:37:17;;;;;;;9.15;8.27;;;23.00;1.00;;;;;;5004779;28;20180;-87
2023/06/08 07:39:43;;;;;;;9.57;8.52;;;22.40;1.00;;;;;;5002470;28;20190;-87
2023/06/08 07:42:08;;;;;;;8.45;7.65;;;23.60;1.00;;;;;;5008841;28;20211;-87
2023/06/08 07:44:34;;;;;;;8.02;7.22;;;23.00;1.00;;;;;;5006116;28;20233;-86
2023/06/08 07:47:00;;;;;;;11.75;8.40;;;22.90;1.00;;;;;;5003670;28;20191;-87
2023/06/08 07:49:28;;;;;;;8.27;7.53;;;22.90;1.00;;;;;;5001361;28;20227;-89
2023/06/08 07:51:54;;;;;;;8.75;7.85;;;23.60;1.00;;;;;;5002741;28;20659;-89
2023/06/08 07:54:20;;;;;;;9.60;8.60;;;22.70;1.00;;;;;;5003837;28;20215;-88
2023/06/08 07:56:46;;;;;;;12.10;8.48;;;22.80;1.00;;;;;;5003521;28;20192;-87
2023/06/08 07:59:12;;;;;;;8.85;7.93;;;23.50;1.00;;;;;;5004706;28;20187;-87
2023/06/08 08:01:42;;;;;;;8.63;7.82;;;23.00;1.00;;;;;;5005127;28;20200;-87
2023/06/08 08:04:08;;;;;;;8.38;7.40;;;22.90;1.00;;;;;;5002659;28;20266;-87
2023/06/08 08:06:34;;;;;;;9.38;7.50;;;22.90;1.00;;;;;;5006324;28;20185;-87
2023/06/08 08:08:59;;;;;;;10.05;8.27;;;24.00;1.00;;;;;;5006584;28;20203;-87
2023/06/08 08:11:26;;;;;;;9.63;8.73;;;23.00;1.00;;;;;;5004544;28;20730;-87
2023/06/08 08:13:52;;;;;;;9.52;7.80;;;23.00;1.00;;;;;;5001571;28;20180;-87
2023/06/08 08:16:18;;;;;;;9.27;8.38;;;23.10;1.00;;;;;;5005316;28;20175;-87
2023/06/08 08:18:44;;;;;;;8.57;7.82;;;23.10;1.00;;;;;;5005311;28;20187;-88
2023/06/08 08:21:10;;;;;;;10.15;9.15;;;23.20;1.00;;;;;;5004296;28;20207;-87
2023/06/08 08:23:38;;;;;;;10.15;9.15;;;22.60;1.00;;;;;;5000832;28;20172;-88
2023/06/08 08:26:04;;;;;;;9.65;8.75;;;22.90;1.00;;;;;;5005960;28;20183;-87
2023/06/08 08:28:29;;;;;;;10.27;9.27;;;23.70;1.00;;;;;;5003963;28;20670;-87
2023/06/08 08:30:55;;;;;;;10.35;8.95;;;23.00;1.00;;;;;;5002884;28;20212;-86
2023/06/08 08:33:21;;;;;;;10.02;9.02;;;23.00;1.00;;;;;;5001969;28;20263;-87
2023/06/08 08:35:47;;;;;;;9.68;8.82;;;23.00;1.00;;;;;;5001984;28;20180;-87
2023/06/08 08:38:13;;;;;;;11.10;9.90;;;23.00;1.00;;;;;;5006205;28;20183;-88
2023/06/08 08:40:41;;;;;;;11.30;10.20;;;23.20;1.00;;;;;;5004963;28;20207;-87
2023/06/08 08:43:10;;;;;;;9.98;9.07;;;23.00;1.00;;;;;;5006798;28;20207;-87
2023/06/08 08:45:38;;;;;;;10.45;9.35;;;22.80;1.00;;;;;;5012139;28;20198;-87
2023/06/08 08:48:07;;;;;;;10.45;8.93;;;22.80;1.00;;;;;;5003205;28;20215;-87
2023/06/08 08:50:38;;;;;;;11.02;9.93;;;22.60;1.00;;;;;;5001077;28;20795;-88
2023/06/08 08:53:09;;;;;;;10.15;9.25;;;22.50;1.00;;;;;;5002647;28;20232;-87
2023/06/08 08:55:36;;;;;;;10.15;9.25;;;22.60;1.00;;;;;;5002692;28;20183;-87
2023/06/08 08:58:03;;;;;;;11.02;10.02;;;23.20;1.00;;;;;;5001176;28;20281;-87
2023/06/08 09:00:36;;;;;;;10.07;9.13;;;23.10;1.00;;;;;;5010122;28;20258;-87
2023/06/08 09:03:02;;;;;;;11.48;9.43;;;22.90;1.00;;;;;;5006580;28;20180;-87
2023/06/08 09:05:27;;;;;;;10.10;9.15;;;23.00;1.00;;;;;;5004787;28;20243;-87
2023/06/08 09:08:02;;;;;;;9.85;8.88;;;23.10;1.00;;;;;;5003041;28;20236;-88
2023/06/08 09:10:28;;;;;;;9.93;9.05;;;23.10;1.00;;;;;;5018639;28;20207;-87
2023/06/08 09:12:55;;;;;;;9.68;8.45;;;23.10;1.00;;;;;;5021353;28;20662;-87
2023/06/08 09:15:33;;;;;;;8.95;8.15;;;23.20;1.00;;;;;;5007654;28;20172;-87
2023/06/08 09:18:20;;;;;;;11.15;9.20;;;23.30;1.00;;;;;;5007217;28;20554;-87
2023/06/08 09:20:46;;;;;;;10.30;8.70;;;23.70;1.00;;;;;;5000233;28;20307;-87
2023/06/08 09:23:16;;;;;;;8.88;7.68;;;23.50;1.00;;;;;;5001676;28;20219;-87
2023/06/08 09:25:42;;;;;;;8.98;8.18;;;23.70;1.00;;;;;;5004720;28;20180;-87
2023/06/08 09:28:28;;;;;;;9.18;8.27;;;23.60;1.00;;;;;;5003829;28;20322;-87
2023/06/08 09:30:57;;;;;;;10.57;8.15;;;23.60;1.00;;;;;;5005935;28;20215;-86
2023/06/08 09:33:29;;;;;;;10.20;8.82;;;23.50;1.00;;;;;;5008174;28;20190;-87
2023/06/08 09:35:57;;;;;;;9.38;8.18;;;23.20;1.00;;;;;;5004857;28;20225;-87
2023/06/08 09:38:25;;;;;;;8.70;7.90;;;24.20;1.00;;;;;;5004539;28;20208;-87
2023/06/08 09:40:51;;;;;;;9.65;8.65;;;23.60;1.00;;;;;;5003091;28;20231;-87
2023/06/08 09:43:33;;;;;;;8.90;8.10;;;24.50;1.00;;;;;;5007834;28;20662;-86
2023/06/08 09:45:59;;;;;;;9.50;8.50;;;23.70;1.00;;;;;;5011523;28;20219;-87
2023/06/08 09:48:25;;;;;;;9.43;7.55;;;23.80;1.00;;;;;;5005244;28;20212;-87
2023/06/08 09:51:00;;;;;;;9.38;7.43;;;24.00;1.00;;;;;;5003088;28;20216;-87
2023/06/08 09:53:27;;;;;;;8.95;7.78;;;24.60;1.00;;;;;;4989917;28;20172;-87
2023/06/08 09:55:54;;;;;;;11.65;8.00;;;24.50;1.00;;;;;;5004954;28;20211;-87
2023/06/08 09:58:25;;;;;;;8.15;7.32;;;24.60;1.00;;;;;;5009631;28;20358;-87
2023/06/08 10:01:00;;;;;;;10.27;8.50;;;24.90;1.00;;;;;;4999483;28;20242;-87
2023/06/08 10:03:33;;;;;;;10.07;8.30;;;24.70;1.00;;;;;;4986847;28;20677;-89
2023/06/08 10:06:02;;;;;;;9.80;7.13;;;24.80;1.00;;;;;;4999601;28;20200;-88
2023/06/08 10:08:28;;;;;;;11.13;8.15;;;25.00;1.00;;;;;;5014778;28;20184;-88
2023/06/08 10:10:57;;;;;;;10.07;7.32;;;25.00;1.00;;;;;;5014897;28;20704;-88
2023/06/08 10:13:22;;;;;;;14.60;9.30;;;25.30;1.00;;;;;;5000330;28;20190;-91
2023/06/08 10:15:49;;;;;;;11.23;8.88;;;25.60;1.00;;;;;;4998232;28;20187;-87
2023/06/08 10:18:14;;;;;;;13.35;8.98;;;25.70;1.00;;;;;;5000048;28;20192;-88
2023/06/08 10:20:53;;;;;;;11.85;10.63;;;25.80;1.00;;;;;;4999137;28;20786;-88
2023/06/08 10:23:19;;;;;;;11.25;10.05;;;25.90;1.00;;;;;;4995701;28;20192;-87
2023/06/08 10:26:00;;;;;;;11.57;10.45;;;25.50;1.00;;;;;;4999574;28;20184;-88
2023/06/08 10:28:27;;;;;;;11.00;9.90;;;25.50;1.00;;;;;;5005647;28;20286;-87
2023/06/08 10:31:31;;;;;;;12.25;10.93;;;25.70;1.00;;;;;;4995595;28;20220;-88
2023/06/08 10:33:58;;;;;;;11.02;9.90;;;25.70;1.00;;;;;;4996851;28;20191;-89
2023/06/08 10:36:34;;;;;;;10.95;9.85;;;25.60;1.00;;;;;;5012279;28;20225;-88
2023/06/08 10:39:00;;;;;;;11.15;9.98;;;25.60;1.00;;;;;;5000567;28;20175;-88
2023/06/08 10:41:42;;;;;;;12.38;11.27;;;25.70;1.00;;;;;;4999348;28;20202;-88
2023/06/08 10:44:31;;;;;;;11.55;10.40;;;25.60;1.00;;;;;;5005852;28;20241;-89
2023/06/08 10:47:14;;;;;;;12.52;11.18;;;25.70;1.00;;;;;;5004216;28;20200;-89
2023/06/08 10:49:45;;;;;;;11.95;10.75;;;25.50;1.00;;;;;;4999179;28;20242;-87
2023/06/08 10:52:19;;;;;;;11.20;10.18;;;25.50;1.00;;;;;;4995612;28;20200;-87
2023/06/08 10:55:11;;;;;;;13.18;10.88;;;25.50;1.00;;;;;;5003731;28;20183;-87
2023/06/08 10:57:40;;;;;;;12.70;11.05;;;25.60;1.00;;;;;;4996842;28;20709;-89
2023/06/08 11:00:24;;;;;;;11.45;10.35;;;25.70;1.00;;;;;;4999467;28;20177;-90
2023/06/08 11:03:19;;;;;;;10.85;9.95;;;25.50;1.00;;;;;;4999543;28;20183;-89
2023/06/08 11:05:53;;;;;;;12.52;10.88;;;25.50;1.00;;;;;;4997349;28;20188;-88
2023/06/08 11:08:29;;;;;;;12.05;10.75;;;25.30;1.00;;;;;;5011877;28;20244;-88
2023/06/08 11:10:55;;;;;;;12.25;11.05;;;25.40;1.00;;;;;;5003986;28;20215;-87
2023/06/08 11:13:26;;;;;;;11.00;9.90;;;25.40;1.00;;;;;;4997830;28;20180;-87
2023/06/08 11:15:52;;;;;;;11.75;10.65;;;25.40;1.00;;;;;;4999613;28;20230;-87
2023/06/08 11:18:20;;;;;;;11.18;10.27;;;25.30;1.00;;;;;;5004290;28;20827;-87
2023/06/08 11:20:46;;;;;;;11.32;9.75;;;25.30;1.00;;;;;;5000764;28;20211;-87
2023/06/08 11:23:14;;;;;;;11.25;10.13;;;25.30;1.00;;;;;;4998248;28;20318;-89
2023/06/08 11:25:40;;;;;;;10.10;9.10;;;25.20;1.00;;;;;;5002781;28;20176;-87
2023/06/08 11:28:10;;;;;;;10.20;9.30;;;25.50;1.00;;;;;;5001659;28;20669;-89
2023/06/08 11:30:36;;;;;;;10.10;9.00;;;25.30;1.00;;;;;;4997691;28;20222;-87
2023/06/08 11:33:08;;;;;;;10.50;8.55;;;25.10;1.00;;;;;;4991368;28;20175;-90
2023/06/08 11:35:34;;;;;;;14.13;9.40;;;25.30;1.00;;;;;;4997249;28;20234;-87
2023/06/08 11:38:03;;;;;;;10.65;9.32;;;25.90;1.00;;;;;;4998594;28;20188;-88
2023/06/08 11:40:41;;;;;;;10.93;9.50;;;25.60;1.00;;;;;;5000136;28;20208;-88
2023/06/08 11:43:09;;;;;;;9.77;8.02;;;25.70;1.00;;;;;;4999087;28;20192;-86
2023/06/08 11:45:47;;;;;;;9.75;8.75;;;25.70;1.00;;;;;;4999384;28;20202;-87
2023/06/08 11:48:13;;;;;;;11.55;10.13;;;25.60;1.00;;;;;;5014524;28;20231;-90
2023/06/08 11:50:48;;;;;;;10.63;9.30;;;25.30;1.00;;;;;;4997937;28;20255;-88
2023/06/08 11:53:24;;;;;;;10.07;8.50;;;25.20;1.00;;;;;;4994614;28;20188;-87
2023/06/08 11:55:54;;;;;;;11.38;10.18;;;25.20;1.00;;;;;;4998139;28;20188;-87
2023/06/08 11:58:27;;;;;;;14.60;10.25;;;25.20;1.00;;;;;;5003986;28;20199;-88
2023/06/08 12:01:05;;;;;;;12.90;9.32;;;25.00;1.00;;;;;;5004176;28;20652;-89
2023/06/08 12:03:33;;;;;;;10.30;9.18;;;25.00;1.00;;;;;;4995664;28;20202;-88
2023/06/08 12:05:59;;;;;;;10.80;9.52;;;25.00;1.00;;;;;;4999036;28;20180;-87
2023/06/08 12:08:25;;;;;;;12.18;9.65;;;25.30;1.00;;;;;;4999405;28;20191;-87
2023/06/08 12:10:52;;;;;;;11.65;9.65;;;25.50;1.00;;;;;;4997633;28;20593;-89
2023/06/08 12:13:22;;;;;;;11.50;9.13;;;25.50;1.00;;;;;;4998405;28;20176;-87
2023/06/08 12:15:53;;;;;;;14.65;10.07;;;25.70;1.00;;;;;;4995698;28;20207;-87
2023/06/08 12:18:21;;;;;;;13.73;10.43;;;25.90;1.00;;;;;;5012500;28;20183;-86
2023/06/08 12:20:51;;;;;;;17.38;10.60;;;25.80;1.00;;;;;;5005667;28;20212;-87
2023/06/08 12:23:17;;;;;;;14.27;10.10;;;26.10;1.00;;;;;;4999291;28;20216;-87
2023/06/08 12:25:43;;;;;;;12.23;9.90;;;26.00;1.00;;;;;;4998702;28;20694;-88
2023/06/08 12:28:20;;;;;;;11.13;9.98;;;26.30;1.00;;;;;;4998219;28;20214;-87
2023/06/08 12:30:46;;;;;;;13.57;10.05;;;26.30;1.00;;;;;;4997516;28;20222;-88
2023/06/08 12:33:17;;;;;;;12.52;10.00;;;26.20;1.00;;;;;;4998115;28;20192;-89
2023/06/08 12:35:44;;;;;;;15.30;10.45;;;26.30;1.00;;;;;;4996493;28;20247;-89
2023/06/08 12:38:10;;;;;;;12.38;9.68;;;26.30;1.00;;;;;;4995855;28;20187;-88
2023/06/08 12:40:35;;;;;;;12.50;10.25;;;26.10;1.00;;;;;;4998280;28;20626;-90
2023/06/08 12:43:01;;;;;;;11.77;9.27;;;26.80;1.00;;;;;;4998343;28;20192;-87
2023/06/08 12:45:38;;;;;;;11.57;10.27;;;25.70;1.00;;;;;;4995195;28;20191;-87
2023/06/08 12:48:04;;;;;;;12.55;10.10;;;25.70;1.00;;;;;;4994637;28;20190;-87
2023/06/08 12:50:30;;;;;;;12.40;10.15;;;25.70;1.00;;;;;;4994617;28;20853;-88
2023/06/08 12:52:57;;;;;;;12.15;10.30;;;25.90;1.00;;;;;;4996776;28;20179;-88